sensor_id;sensor_type;location;lat;lon;timestamp;P1;durP1;ratioP1;P2;durP2;ratioP2
66830;SDS011;53739;44.224;22.528;2022-07-23T00:00:53;13.77;;;9.18;;
66830;SDS011;53739;44.224;22.528;2022-07-23T00:03:19;19.58;;;10.38;;
66830;SDS011;53739;44.224;22.528;2022-07-23T00:05:44;21.20;;;9.57;;
66830;SDS011;53739;44.224;22.528;2022-07-23T00:08:10;18.98;;;10.48;;
66830;SDS011;53739;44.224;22.528;2022-07-23T00:10:36;20.92;;;10.30;;
66830;SDS011;53739;44.224;22.528;2022-07-23T00:13:02;16.98;;;10.07;;
66830;SDS011;53739;44.224;22.528;2022-07-23T00:15:28;22.35;;;10.50;;
66830;SDS011;53739;44.224;22.528;2022-07-23T00:17:54;14.98;;;9.70;;
66830;SDS011;53739;44.224;22.528;2022-07-23T00:20:20;17.58;;;10.55;;
66830;SDS011;53739;44.224;22.528;2022-07-23T00:22:49;22.23;;;11.25;;
66830;SDS011;53739;44.224;22.528;2022-07-23T00:25:16;17.10;;;10.20;;
66830;SDS011;53739;44.224;22.528;2022-07-23T00:27:43;16.00;;;9.55;;
66830;SDS011;53739;44.224;22.528;2022-07-23T00:30:09;15.50;;;9.50;;
66830;SDS011;53739;44.224;22.528;2022-07-23T00:32:49;20.55;;;10.10;;
66830;SDS011;53739;44.224;22.528;2022-07-23T00:35:17;18.20;;;10.95;;
66830;SDS011;53739;44.224;22.528;2022-07-23T00:37:45;15.02;;;9.27;;
66830;SDS011;53739;44.224;22.528;2022-07-23T00:40:11;17.50;;;9.73;;
66830;SDS011;53739;44.224;22.528;2022-07-23T00:42:38;16.88;;;9.63;;
66830;SDS011;53739;44.224;22.528;2022-07-23T00:45:04;15.70;;;9.80;;
66830;SDS011;53739;44.224;22.528;2022-07-23T00:47:31;16.92;;;10.02;;
66830;SDS011;53739;44.224;22.528;2022-07-23T00:49:57;19.30;;;10.20;;
66830;SDS011;53739;44.224;22.528;2022-07-23T00:52:22;19.33;;;10.00;;
66830;SDS011;53739;44.224;22.528;2022-07-23T00:54:48;18.38;;;10.85;;
66830;SDS011;53739;44.224;22.528;2022-07-23T00:57:15;19.48;;;9.80;;
66830;SDS011;53739;44.224;22.528;2022-07-23T00:59:41;14.15;;;10.13;;
66830;SDS011;53739;44.224;22.528;2022-07-23T01:02:07;26.13;;;13.25;;
66830;SDS011;53739;44.224;22.528;2022-07-23T01:04:33;27.92;;;14.00;;
66830;SDS011;53739;44.224;22.528;2022-07-23T01:06:59;21.42;;;11.38;;
66830;SDS011;53739;44.224;22.528;2022-07-23T01:09:25;18.52;;;9.43;;
66830;SDS011;53739;44.224;22.528;2022-07-23T01:11:53;14.95;;;9.85;;
66830;SDS011;53739;44.224;22.528;2022-07-23T01:14:20;15.73;;;10.02;;
66830;SDS011;53739;44.224;22.528;2022-07-23T01:16:47;19.73;;;9.98;;
66830;SDS011;53739;44.224;22.528;2022-07-23T01:19:14;19.10;;;10.43;;
66830;SDS011;53739;44.224;22.528;2022-07-23T01:21:41;18.75;;;9.93;;
66830;SDS011;53739;44.224;22.528;2022-07-23T01:24:09;15.63;;;9.63;;
66830;SDS011;53739;44.224;22.528;2022-07-23T01:26:36;20.20;;;9.40;;
66830;SDS011;53739;44.224;22.528;2022-07-23T01:29:03;18.25;;;10.10;;
66830;SDS011;53739;44.224;22.528;2022-07-23T01:31:29;18.30;;;10.15;;
66830;SDS011;53739;44.224;22.528;2022-07-23T01:33:56;20.90;;;10.57;;
66830;SDS011;53739;44.224;22.528;2022-07-23T01:36:22;14.98;;;9.82;;
66830;SDS011;53739;44.224;22.528;2022-07-23T01:38:48;16.35;;;10.38;;
66830;SDS011;53739;44.224;22.528;2022-07-23T01:41:14;18.95;;;9.68;;
66830;SDS011;53739;44.224;22.528;2022-07-23T01:43:40;15.02;;;9.98;;
66830;SDS011;53739;44.224;22.528;2022-07-23T01:46:09;20.80;;;10.07;;
66830;SDS011;53739;44.224;22.528;2022-07-23T01:48:36;15.88;;;9.82;;
66830;SDS011;53739;44.224;22.528;2022-07-23T01:51:04;14.93;;;9.65;;
66830;SDS011;53739;44.224;22.528;2022-07-23T01:53:31;14.05;;;10.43;;
66830;SDS011;53739;44.224;22.528;2022-07-23T01:55:57;18.45;;;10.10;;
66830;SDS011;53739;44.224;22.528;2022-07-23T01:58:24;18.50;;;10.80;;
66830;SDS011;53739;44.224;22.528;2022-07-23T02:00:51;14.80;;;9.18;;
66830;SDS011;53739;44.224;22.528;2022-07-23T02:03:19;18.00;;;10.18;;
66830;SDS011;53739;44.224;22.528;2022-07-23T02:05:46;19.27;;;10.07;;
66830;SDS011;53739;44.224;22.528;2022-07-23T02:08:11;14.60;;;9.68;;
66830;SDS011;53739;44.224;22.528;2022-07-23T02:10:37;15.45;;;9.52;;
66830;SDS011;53739;44.224;22.528;2022-07-23T02:13:03;15.15;;;9.55;;
66830;SDS011;53739;44.224;22.528;2022-07-23T02:15:32;18.23;;;9.55;;
66830;SDS011;53739;44.224;22.528;2022-07-23T02:17:58;15.88;;;10.30;;
66830;SDS011;53739;44.224;22.528;2022-07-23T02:20:25;17.65;;;9.82;;
66830;SDS011;53739;44.224;22.528;2022-07-23T02:22:51;13.65;;;9.68;;
66830;SDS011;53739;44.224;22.528;2022-07-23T02:25:17;17.98;;;10.40;;
66830;SDS011;53739;44.224;22.528;2022-07-23T02:27:43;14.63;;;10.48;;
66830;SDS011;53739;44.224;22.528;2022-07-23T02:30:09;22.10;;;10.80;;
66830;SDS011;53739;44.224;22.528;2022-07-23T02:32:35;20.17;;;10.20;;
66830;SDS011;53739;44.224;22.528;2022-07-23T02:35:02;14.68;;;10.30;;
66830;SDS011;53739;44.224;22.528;2022-07-23T02:37:29;16.13;;;10.30;;
66830;SDS011;53739;44.224;22.528;2022-07-23T02:39:54;16.65;;;9.77;;
66830;SDS011;53739;44.224;22.528;2022-07-23T02:42:20;17.67;;;10.32;;
66830;SDS011;53739;44.224;22.528;2022-07-23T02:44:48;19.20;;;9.85;;
66830;SDS011;53739;44.224;22.528;2022-07-23T02:47:15;15.63;;;9.38;;
66830;SDS011;53739;44.224;22.528;2022-07-23T02:49:41;16.60;;;10.90;;
66830;SDS011;53739;44.224;22.528;2022-07-23T02:52:07;14.82;;;10.15;;
66830;SDS011;53739;44.224;22.528;2022-07-23T02:54:35;16.08;;;10.32;;
66830;SDS011;53739;44.224;22.528;2022-07-23T02:57:01;16.30;;;10.73;;
66830;SDS011;53739;44.224;22.528;2022-07-23T02:59:27;21.63;;;10.65;;
66830;SDS011;53739;44.224;22.528;2022-07-23T03:01:53;18.50;;;10.23;;
66830;SDS011;53739;44.224;22.528;2022-07-23T03:04:19;16.92;;;10.05;;
66830;SDS011;53739;44.224;22.528;2022-07-23T03:06:45;18.50;;;10.68;;
66830;SDS011;53739;44.224;22.528;2022-07-23T03:09:11;26.45;;;11.52;;
66830;SDS011;53739;44.224;22.528;2022-07-23T03:11:37;18.83;;;11.60;;
66830;SDS011;53739;44.224;22.528;2022-07-23T03:14:02;16.25;;;10.57;;
66830;SDS011;53739;44.224;22.528;2022-07-23T03:16:28;25.80;;;11.20;;
66830;SDS011;53739;44.224;22.528;2022-07-23T03:18:54;22.17;;;12.07;;
66830;SDS011;53739;44.224;22.528;2022-07-23T03:21:20;26.83;;;10.00;;
66830;SDS011;53739;44.224;22.528;2022-07-23T03:23:46;22.73;;;10.95;;
66830;SDS011;53739;44.224;22.528;2022-07-23T03:26:11;19.48;;;10.82;;
66830;SDS011;53739;44.224;22.528;2022-07-23T03:28:37;20.75;;;11.43;;
66830;SDS011;53739;44.224;22.528;2022-07-23T03:31:03;21.40;;;10.88;;
66830;SDS011;53739;44.224;22.528;2022-07-23T03:33:29;20.60;;;11.50;;
66830;SDS011;53739;44.224;22.528;2022-07-23T03:35:55;22.88;;;10.20;;
66830;SDS011;53739;44.224;22.528;2022-07-23T03:38:21;19.67;;;10.50;;
66830;SDS011;53739;44.224;22.528;2022-07-23T03:40:47;23.70;;;11.65;;
66830;SDS011;53739;44.224;22.528;2022-07-23T03:43:12;21.83;;;11.45;;
66830;SDS011;53739;44.224;22.528;2022-07-23T03:45:38;19.17;;;10.85;;
66830;SDS011;53739;44.224;22.528;2022-07-23T03:48:04;19.25;;;11.73;;
66830;SDS011;53739;44.224;22.528;2022-07-23T03:50:30;20.27;;;11.65;;
66830;SDS011;53739;44.224;22.528;2022-07-23T03:52:56;20.48;;;10.55;;
66830;SDS011;53739;44.224;22.528;2022-07-23T03:55:22;15.90;;;10.77;;
66830;SDS011;53739;44.224;22.528;2022-07-23T03:57:48;14.88;;;11.20;;
66830;SDS011;53739;44.224;22.528;2022-07-23T04:00:14;21.13;;;10.95;;
66830;SDS011;53739;44.224;22.528;2022-07-23T04:02:40;19.60;;;10.75;;
66830;SDS011;53739;44.224;22.528;2022-07-23T04:05:06;18.60;;;10.45;;
66830;SDS011;53739;44.224;22.528;2022-07-23T04:07:32;14.45;;;10.32;;
66830;SDS011;53739;44.224;22.528;2022-07-23T04:09:58;22.95;;;11.77;;
66830;SDS011;53739;44.224;22.528;2022-07-23T04:12:24;21.50;;;10.43;;
66830;SDS011;53739;44.224;22.528;2022-07-23T04:14:50;16.33;;;11.00;;
66830;SDS011;53739;44.224;22.528;2022-07-23T04:17:16;21.13;;;10.90;;
66830;SDS011;53739;44.224;22.528;2022-07-23T04:19:42;19.23;;;10.77;;
66830;SDS011;53739;44.224;22.528;2022-07-23T04:22:09;16.40;;;10.98;;
66830;SDS011;53739;44.224;22.528;2022-07-23T04:24:36;20.67;;;10.77;;
66830;SDS011;53739;44.224;22.528;2022-07-23T04:27:02;28.17;;;12.55;;
66830;SDS011;53739;44.224;22.528;2022-07-23T04:29:28;18.73;;;11.30;;
66830;SDS011;53739;44.224;22.528;2022-07-23T04:31:54;21.80;;;10.82;;
66830;SDS011;53739;44.224;22.528;2022-07-23T04:34:20;16.13;;;10.45;;
66830;SDS011;53739;44.224;22.528;2022-07-23T04:36:47;21.85;;;11.05;;
66830;SDS011;53739;44.224;22.528;2022-07-23T04:39:12;18.42;;;11.30;;
66830;SDS011;53739;44.224;22.528;2022-07-23T04:41:39;18.33;;;10.77;;
66830;SDS011;53739;44.224;22.528;2022-07-23T04:44:05;15.93;;;11.02;;
66830;SDS011;53739;44.224;22.528;2022-07-23T04:46:31;20.92;;;11.63;;
66830;SDS011;53739;44.224;22.528;2022-07-23T04:48:57;21.80;;;10.90;;
66830;SDS011;53739;44.224;22.528;2022-07-23T04:51:23;14.55;;;9.98;;
66830;SDS011;53739;44.224;22.528;2022-07-23T04:53:49;20.75;;;11.15;;
66830;SDS011;53739;44.224;22.528;2022-07-23T04:56:15;24.08;;;11.05;;
66830;SDS011;53739;44.224;22.528;2022-07-23T04:58:41;21.63;;;11.05;;
66830;SDS011;53739;44.224;22.528;2022-07-23T05:01:07;23.00;;;11.82;;
66830;SDS011;53739;44.224;22.528;2022-07-23T05:03:32;18.92;;;10.27;;
66830;SDS011;53739;44.224;22.528;2022-07-23T05:05:59;21.10;;;10.57;;
66830;SDS011;53739;44.224;22.528;2022-07-23T05:08:27;21.45;;;11.23;;
66830;SDS011;53739;44.224;22.528;2022-07-23T05:10:53;20.67;;;11.00;;
66830;SDS011;53739;44.224;22.528;2022-07-23T05:13:19;22.10;;;10.10;;
66830;SDS011;53739;44.224;22.528;2022-07-23T05:15:45;21.90;;;11.98;;
66830;SDS011;53739;44.224;22.528;2022-07-23T05:18:11;20.23;;;11.43;;
66830;SDS011;53739;44.224;22.528;2022-07-23T05:20:37;19.63;;;11.30;;
66830;SDS011;53739;44.224;22.528;2022-07-23T05:23:07;24.77;;;11.98;;
66830;SDS011;53739;44.224;22.528;2022-07-23T05:25:39;18.90;;;11.27;;
66830;SDS011;53739;44.224;22.528;2022-07-23T05:28:05;22.58;;;11.48;;
66830;SDS011;53739;44.224;22.528;2022-07-23T05:30:34;23.58;;;12.30;;
66830;SDS011;53739;44.224;22.528;2022-07-23T05:32:59;19.77;;;10.98;;
66830;SDS011;53739;44.224;22.528;2022-07-23T05:35:25;26.33;;;13.05;;
66830;SDS011;53739;44.224;22.528;2022-07-23T05:37:52;24.70;;;12.15;;
66830;SDS011;53739;44.224;22.528;2022-07-23T05:40:18;19.50;;;12.13;;
66830;SDS011;53739;44.224;22.528;2022-07-23T05:42:43;23.40;;;10.48;;
66830;SDS011;53739;44.224;22.528;2022-07-23T05:45:10;16.15;;;10.30;;
66830;SDS011;53739;44.224;22.528;2022-07-23T05:47:46;21.40;;;10.68;;
66830;SDS011;53739;44.224;22.528;2022-07-23T05:50:13;31.08;;;11.63;;
66830;SDS011;53739;44.224;22.528;2022-07-23T05:52:39;18.17;;;10.60;;
66830;SDS011;53739;44.224;22.528;2022-07-23T05:55:06;26.92;;;10.32;;
66830;SDS011;53739;44.224;22.528;2022-07-23T05:57:32;16.08;;;9.32;;
66830;SDS011;53739;44.224;22.528;2022-07-23T05:59:58;17.73;;;10.50;;
66830;SDS011;53739;44.224;22.528;2022-07-23T06:02:24;18.95;;;9.02;;
66830;SDS011;53739;44.224;22.528;2022-07-23T06:04:50;17.65;;;10.07;;
66830;SDS011;53739;44.224;22.528;2022-07-23T06:07:16;22.85;;;9.57;;
66830;SDS011;53739;44.224;22.528;2022-07-23T06:09:41;20.13;;;9.88;;
66830;SDS011;53739;44.224;22.528;2022-07-23T06:12:07;24.55;;;10.38;;
66830;SDS011;53739;44.224;22.528;2022-07-23T06:14:34;19.13;;;9.77;;
66830;SDS011;53739;44.224;22.528;2022-07-23T06:17:00;15.98;;;9.13;;
66830;SDS011;53739;44.224;22.528;2022-07-23T06:19:26;21.75;;;10.07;;
66830;SDS011;53739;44.224;22.528;2022-07-23T06:21:52;17.02;;;10.15;;
66830;SDS011;53739;44.224;22.528;2022-07-23T06:24:17;24.88;;;10.05;;
66830;SDS011;53739;44.224;22.528;2022-07-23T06:26:43;18.60;;;10.10;;
66830;SDS011;53739;44.224;22.528;2022-07-23T06:29:09;16.67;;;9.27;;
66830;SDS011;53739;44.224;22.528;2022-07-23T06:31:35;17.15;;;9.65;;
66830;SDS011;53739;44.224;22.528;2022-07-23T06:34:02;18.35;;;9.10;;
66830;SDS011;53739;44.224;22.528;2022-07-23T06:36:28;18.02;;;9.15;;
66830;SDS011;53739;44.224;22.528;2022-07-23T06:38:54;13.45;;;9.38;;
66830;SDS011;53739;44.224;22.528;2022-07-23T06:41:20;16.55;;;8.85;;
66830;SDS011;53739;44.224;22.528;2022-07-23T06:43:47;18.23;;;10.10;;
66830;SDS011;53739;44.224;22.528;2022-07-23T06:46:13;20.30;;;10.38;;
66830;SDS011;53739;44.224;22.528;2022-07-23T06:48:39;17.10;;;9.57;;
66830;SDS011;53739;44.224;22.528;2022-07-23T06:51:08;15.18;;;9.10;;
66830;SDS011;53739;44.224;22.528;2022-07-23T06:53:33;18.60;;;9.43;;
66830;SDS011;53739;44.224;22.528;2022-07-23T06:55:59;14.98;;;8.80;;
66830;SDS011;53739;44.224;22.528;2022-07-23T06:58:28;15.73;;;8.35;;
66830;SDS011;53739;44.224;22.528;2022-07-23T07:00:54;13.55;;;9.20;;
66830;SDS011;53739;44.224;22.528;2022-07-23T07:03:22;17.95;;;8.75;;
66830;SDS011;53739;44.224;22.528;2022-07-23T07:05:48;14.63;;;7.97;;
66830;SDS011;53739;44.224;22.528;2022-07-23T07:08:14;14.75;;;7.63;;
66830;SDS011;53739;44.224;22.528;2022-07-23T07:10:41;11.40;;;7.50;;
66830;SDS011;53739;44.224;22.528;2022-07-23T07:13:06;12.60;;;7.85;;
66830;SDS011;53739;44.224;22.528;2022-07-23T07:15:32;13.52;;;8.27;;
66830;SDS011;53739;44.224;22.528;2022-07-23T07:17:58;16.60;;;8.15;;
66830;SDS011;53739;44.224;22.528;2022-07-23T07:20:24;18.00;;;8.40;;
66830;SDS011;53739;44.224;22.528;2022-07-23T07:22:50;15.50;;;8.20;;
66830;SDS011;53739;44.224;22.528;2022-07-23T07:25:16;14.50;;;7.57;;
66830;SDS011;53739;44.224;22.528;2022-07-23T07:27:42;12.10;;;7.70;;
66830;SDS011;53739;44.224;22.528;2022-07-23T07:30:09;21.63;;;7.70;;
66830;SDS011;53739;44.224;22.528;2022-07-23T07:32:36;12.73;;;6.60;;
66830;SDS011;53739;44.224;22.528;2022-07-23T07:35:02;10.75;;;6.82;;
66830;SDS011;53739;44.224;22.528;2022-07-23T07:37:29;18.48;;;7.07;;
66830;SDS011;53739;44.224;22.528;2022-07-23T07:39:55;13.98;;;7.90;;
66830;SDS011;53739;44.224;22.528;2022-07-23T07:42:21;13.63;;;7.30;;
66830;SDS011;53739;44.224;22.528;2022-07-23T07:44:47;15.38;;;7.55;;
66830;SDS011;53739;44.224;22.528;2022-07-23T07:47:13;11.02;;;6.50;;
66830;SDS011;53739;44.224;22.528;2022-07-23T07:49:42;13.73;;;7.90;;
66830;SDS011;53739;44.224;22.528;2022-07-23T07:52:08;12.23;;;7.10;;
66830;SDS011;53739;44.224;22.528;2022-07-23T07:54:35;13.00;;;7.40;;
66830;SDS011;53739;44.224;22.528;2022-07-23T07:57:01;15.48;;;7.03;;
66830;SDS011;53739;44.224;22.528;2022-07-23T07:59:27;11.52;;;6.30;;
66830;SDS011;53739;44.224;22.528;2022-07-23T08:01:53;10.90;;;6.90;;
66830;SDS011;53739;44.224;22.528;2022-07-23T08:04:31;15.52;;;7.32;;
66830;SDS011;53739;44.224;22.528;2022-07-23T08:06:57;12.55;;;6.75;;
66830;SDS011;53739;44.224;22.528;2022-07-23T08:09:23;14.88;;;6.82;;
66830;SDS011;53739;44.224;22.528;2022-07-23T08:11:49;11.35;;;7.10;;
66830;SDS011;53739;44.224;22.528;2022-07-23T08:14:17;16.15;;;7.00;;
66830;SDS011;53739;44.224;22.528;2022-07-23T08:16:43;13.38;;;6.75;;
66830;SDS011;53739;44.224;22.528;2022-07-23T08:19:09;16.02;;;6.78;;
66830;SDS011;53739;44.224;22.528;2022-07-23T08:21:35;14.63;;;6.70;;
66830;SDS011;53739;44.224;22.528;2022-07-23T08:24:02;17.10;;;7.68;;
66830;SDS011;53739;44.224;22.528;2022-07-23T08:26:28;14.07;;;7.97;;
66830;SDS011;53739;44.224;22.528;2022-07-23T08:28:54;12.05;;;6.32;;
66830;SDS011;53739;44.224;22.528;2022-07-23T08:31:20;16.73;;;7.13;;
66830;SDS011;53739;44.224;22.528;2022-07-23T08:33:46;13.88;;;7.07;;
66830;SDS011;53739;44.224;22.528;2022-07-23T08:36:12;12.82;;;7.18;;
66830;SDS011;53739;44.224;22.528;2022-07-23T08:38:38;11.82;;;7.07;;
66830;SDS011;53739;44.224;22.528;2022-07-23T08:41:05;12.60;;;6.30;;
66830;SDS011;53739;44.224;22.528;2022-07-23T08:43:33;15.43;;;6.95;;
66830;SDS011;53739;44.224;22.528;2022-07-23T08:46:01;13.65;;;6.97;;
66830;SDS011;53739;44.224;22.528;2022-07-23T08:48:30;15.00;;;6.70;;
66830;SDS011;53739;44.224;22.528;2022-07-23T08:50:58;16.10;;;7.15;;
66830;SDS011;53739;44.224;22.528;2022-07-23T08:53:26;13.85;;;6.45;;
66830;SDS011;53739;44.224;22.528;2022-07-23T08:55:53;10.88;;;6.85;;
66830;SDS011;53739;44.224;22.528;2022-07-23T08:58:21;12.32;;;6.07;;
66830;SDS011;53739;44.224;22.528;2022-07-23T09:00:48;10.45;;;5.82;;
66830;SDS011;53739;44.224;22.528;2022-07-23T09:03:18;12.75;;;6.68;;
66830;SDS011;53739;44.224;22.528;2022-07-23T09:08:15;9.30;;;5.93;;
66830;SDS011;53739;44.224;22.528;2022-07-23T09:16:08;8.07;;;6.15;;
66830;SDS011;53739;44.224;22.528;2022-07-23T09:18:55;12.77;;;6.30;;
66830;SDS011;53739;44.224;22.528;2022-07-23T09:24:08;14.15;;;6.57;;
66830;SDS011;53739;44.224;22.528;2022-07-23T09:26:43;13.63;;;6.13;;
66830;SDS011;53739;44.224;22.528;2022-07-23T09:29:11;15.48;;;5.82;;
66830;SDS011;53739;44.224;22.528;2022-07-23T09:36:40;12.82;;;6.50;;
66830;SDS011;53739;44.224;22.528;2022-07-23T09:39:06;10.68;;;5.80;;
66830;SDS011;53739;44.224;22.528;2022-07-23T09:41:34;11.18;;;5.80;;
66830;SDS011;53739;44.224;22.528;2022-07-23T09:44:08;13.55;;;6.50;;
66830;SDS011;53739;44.224;22.528;2022-07-23T09:46:37;12.40;;;6.47;;
66830;SDS011;53739;44.224;22.528;2022-07-23T09:49:12;13.20;;;6.22;;
66830;SDS011;53739;44.224;22.528;2022-07-23T09:54:23;9.38;;;6.10;;
66830;SDS011;53739;44.224;22.528;2022-07-23T09:56:52;10.95;;;6.20;;
66830;SDS011;53739;44.224;22.528;2022-07-23T09:59:20;11.77;;;5.78;;
66830;SDS011;53739;44.224;22.528;2022-07-23T10:01:51;11.40;;;6.00;;
66830;SDS011;53739;44.224;22.528;2022-07-23T10:04:22;15.40;;;5.82;;
66830;SDS011;53739;44.224;22.528;2022-07-23T10:12:58;12.02;;;6.22;;
66830;SDS011;53739;44.224;22.528;2022-07-23T10:16:05;11.60;;;6.47;;
66830;SDS011;53739;44.224;22.528;2022-07-23T10:18:56;10.75;;;5.90;;
66830;SDS011;53739;44.224;22.528;2022-07-23T10:34:21;14.40;;;5.90;;
66830;SDS011;53739;44.224;22.528;2022-07-23T10:43:32;10.52;;;5.65;;
66830;SDS011;53739;44.224;22.528;2022-07-23T10:52:16;12.90;;;5.80;;
66830;SDS011;53739;44.224;22.528;2022-07-23T10:54:46;11.05;;;5.82;;
66830;SDS011;53739;44.224;22.528;2022-07-23T10:57:17;13.25;;;6.38;;
66830;SDS011;53739;44.224;22.528;2022-07-23T11:02:46;9.75;;;5.38;;
66830;SDS011;53739;44.224;22.528;2022-07-23T11:05:14;10.27;;;5.53;;
66830;SDS011;53739;44.224;22.528;2022-07-23T11:10:36;10.55;;;5.82;;
66830;SDS011;53739;44.224;22.528;2022-07-23T11:26:45;9.73;;;5.40;;
66830;SDS011;53739;44.224;22.528;2022-07-23T11:36:55;9.98;;;5.53;;
66830;SDS011;53739;44.224;22.528;2022-07-23T11:39:21;11.10;;;5.45;;
66830;SDS011;53739;44.224;22.528;2022-07-23T11:41:51;13.00;;;5.82;;
66830;SDS011;53739;44.224;22.528;2022-07-23T11:44:24;9.90;;;5.55;;
66830;SDS011;53739;44.224;22.528;2022-07-23T11:46:56;10.80;;;5.47;;
66830;SDS011;53739;44.224;22.528;2022-07-23T11:49:23;9.82;;;5.15;;
66830;SDS011;53739;44.224;22.528;2022-07-23T11:52:05;15.40;;;5.03;;
66830;SDS011;53739;44.224;22.528;2022-07-23T11:54:48;9.90;;;5.25;;
66830;SDS011;53739;44.224;22.528;2022-07-23T11:57:17;9.48;;;5.25;;
66830;SDS011;53739;44.224;22.528;2022-07-23T11:59:45;11.60;;;5.20;;
66830;SDS011;53739;44.224;22.528;2022-07-23T12:02:14;12.43;;;5.05;;
66830;SDS011;53739;44.224;22.528;2022-07-23T12:04:44;12.52;;;5.10;;
66830;SDS011;53739;44.224;22.528;2022-07-23T12:07:35;14.10;;;5.80;;
66830;SDS011;53739;44.224;22.528;2022-07-23T12:10:44;14.50;;;5.35;;
66830;SDS011;53739;44.224;22.528;2022-07-23T12:12:58;13.55;;;5.63;;
66830;SDS011;53739;44.224;22.528;2022-07-23T12:15:50;13.60;;;5.60;;
66830;SDS011;53739;44.224;22.528;2022-07-23T12:18:45;13.68;;;5.82;;
66830;SDS011;53739;44.224;22.528;2022-07-23T12:21:11;12.48;;;5.50;;
66830;SDS011;53739;44.224;22.528;2022-07-23T12:23:43;10.45;;;5.57;;
66830;SDS011;53739;44.224;22.528;2022-07-23T12:26:14;14.25;;;5.63;;
66830;SDS011;53739;44.224;22.528;2022-07-23T12:28:51;12.77;;;5.40;;
66830;SDS011;53739;44.224;22.528;2022-07-23T12:31:26;14.70;;;5.72;;
66830;SDS011;53739;44.224;22.528;2022-07-23T12:33:58;10.52;;;5.30;;
66830;SDS011;53739;44.224;22.528;2022-07-23T12:36:38;12.90;;;5.43;;
66830;SDS011;53739;44.224;22.528;2022-07-23T12:39:07;12.68;;;6.00;;
66830;SDS011;53739;44.224;22.528;2022-07-23T12:41:52;12.32;;;5.28;;
66830;SDS011;53739;44.224;22.528;2022-07-23T12:44:27;11.07;;;5.75;;
66830;SDS011;53739;44.224;22.528;2022-07-23T12:46:56;10.65;;;5.40;;
66830;SDS011;53739;44.224;22.528;2022-07-23T12:49:28;11.55;;;5.88;;
66830;SDS011;53739;44.224;22.528;2022-07-23T12:51:54;13.95;;;5.75;;
66830;SDS011;53739;44.224;22.528;2022-07-23T12:54:28;14.00;;;6.45;;
66830;SDS011;53739;44.224;22.528;2022-07-23T12:59:49;14.50;;;5.65;;
66830;SDS011;53739;44.224;22.528;2022-07-23T13:02:15;10.20;;;5.32;;
66830;SDS011;53739;44.224;22.528;2022-07-23T13:04:41;12.32;;;5.25;;
66830;SDS011;53739;44.224;22.528;2022-07-23T13:07:06;18.73;;;6.18;;
66830;SDS011;53739;44.224;22.528;2022-07-23T13:09:50;12.98;;;5.72;;
66830;SDS011;53739;44.224;22.528;2022-07-23T13:12:16;12.52;;;5.28;;
66830;SDS011;53739;44.224;22.528;2022-07-23T13:17:34;14.07;;;5.30;;
66830;SDS011;53739;44.224;22.528;2022-07-23T13:20:00;13.82;;;5.25;;
66830;SDS011;53739;44.224;22.528;2022-07-23T13:22:26;8.38;;;5.35;;
66830;SDS011;53739;44.224;22.528;2022-07-23T13:24:52;9.00;;;5.10;;
66830;SDS011;53739;44.224;22.528;2022-07-23T13:27:23;12.05;;;5.78;;
66830;SDS011;53739;44.224;22.528;2022-07-23T13:29:49;9.07;;;5.00;;
66830;SDS011;53739;44.224;22.528;2022-07-23T13:32:18;10.70;;;5.57;;
66830;SDS011;53739;44.224;22.528;2022-07-23T13:34:47;10.18;;;5.85;;
66830;SDS011;53739;44.224;22.528;2022-07-23T13:37:13;12.32;;;5.20;;
66830;SDS011;53739;44.224;22.528;2022-07-23T13:39:48;7.85;;;5.10;;
66830;SDS011;53739;44.224;22.528;2022-07-23T13:42:13;9.10;;;5.13;;
66830;SDS011;53739;44.224;22.528;2022-07-23T13:44:39;11.50;;;5.55;;
66830;SDS011;53739;44.224;22.528;2022-07-23T13:47:05;11.82;;;5.13;;
66830;SDS011;53739;44.224;22.528;2022-07-23T13:49:31;10.55;;;6.18;;
66830;SDS011;53739;44.224;22.528;2022-07-23T13:51:57;13.45;;;5.70;;
66830;SDS011;53739;44.224;22.528;2022-07-23T13:54:23;15.63;;;5.95;;
66830;SDS011;53739;44.224;22.528;2022-07-23T13:56:49;11.85;;;5.40;;
66830;SDS011;53739;44.224;22.528;2022-07-23T13:59:18;9.68;;;5.75;;
66830;SDS011;53739;44.224;22.528;2022-07-23T14:01:44;7.85;;;5.22;;
66830;SDS011;53739;44.224;22.528;2022-07-23T14:04:10;14.65;;;5.22;;
66830;SDS011;53739;44.224;22.528;2022-07-23T14:06:36;10.38;;;5.45;;
66830;SDS011;53739;44.224;22.528;2022-07-23T14:09:02;14.80;;;5.93;;
66830;SDS011;53739;44.224;22.528;2022-07-23T14:11:28;9.27;;;5.20;;
66830;SDS011;53739;44.224;22.528;2022-07-23T14:13:55;13.55;;;5.88;;
66830;SDS011;53739;44.224;22.528;2022-07-23T14:16:22;14.75;;;5.43;;
66830;SDS011;53739;44.224;22.528;2022-07-23T14:18:48;12.27;;;5.70;;
66830;SDS011;53739;44.224;22.528;2022-07-23T14:21:14;10.48;;;4.95;;
66830;SDS011;53739;44.224;22.528;2022-07-23T14:23:40;14.27;;;6.10;;
66830;SDS011;53739;44.224;22.528;2022-07-23T14:26:06;11.20;;;5.60;;
66830;SDS011;53739;44.224;22.528;2022-07-23T14:28:35;13.48;;;5.55;;
66830;SDS011;53739;44.224;22.528;2022-07-23T14:31:01;11.45;;;5.68;;
66830;SDS011;53739;44.224;22.528;2022-07-23T14:33:27;10.95;;;5.13;;
66830;SDS011;53739;44.224;22.528;2022-07-23T14:35:53;12.82;;;5.25;;
66830;SDS011;53739;44.224;22.528;2022-07-23T14:38:22;13.15;;;5.40;;
66830;SDS011;53739;44.224;22.528;2022-07-23T14:40:57;13.77;;;5.47;;
66830;SDS011;53739;44.224;22.528;2022-07-23T14:43:26;6.95;;;5.13;;
66830;SDS011;53739;44.224;22.528;2022-07-23T14:45:52;11.50;;;5.72;;
66830;SDS011;53739;44.224;22.528;2022-07-23T14:48:19;14.60;;;6.10;;
66830;SDS011;53739;44.224;22.528;2022-07-23T14:50:48;13.85;;;5.95;;
66830;SDS011;53739;44.224;22.528;2022-07-23T14:53:13;12.15;;;5.80;;
66830;SDS011;53739;44.224;22.528;2022-07-23T14:55:39;10.02;;;5.65;;
66830;SDS011;53739;44.224;22.528;2022-07-23T14:58:05;9.38;;;5.00;;
66830;SDS011;53739;44.224;22.528;2022-07-23T15:00:31;11.45;;;6.07;;
66830;SDS011;53739;44.224;22.528;2022-07-23T15:03:01;13.05;;;4.80;;
66830;SDS011;53739;44.224;22.528;2022-07-23T15:05:30;10.90;;;5.28;;
66830;SDS011;53739;44.224;22.528;2022-07-23T15:07:58;8.23;;;5.20;;
66830;SDS011;53739;44.224;22.528;2022-07-23T15:10:24;11.98;;;5.70;;
66830;SDS011;53739;44.224;22.528;2022-07-23T15:16:51;9.07;;;4.95;;
66830;SDS011;53739;44.224;22.528;2022-07-23T15:19:30;14.55;;;5.32;;
66830;SDS011;53739;44.224;22.528;2022-07-23T15:21:57;13.13;;;5.40;;
66830;SDS011;53739;44.224;22.528;2022-07-23T15:24:24;10.82;;;5.15;;
66830;SDS011;53739;44.224;22.528;2022-07-23T15:26:50;11.35;;;5.50;;
66830;SDS011;53739;44.224;22.528;2022-07-23T15:29:16;13.73;;;5.35;;
66830;SDS011;53739;44.224;22.528;2022-07-23T15:31:42;12.13;;;5.75;;
66830;SDS011;53739;44.224;22.528;2022-07-23T15:34:08;13.52;;;6.35;;
66830;SDS011;53739;44.224;22.528;2022-07-23T15:36:34;11.48;;;5.45;;
66830;SDS011;53739;44.224;22.528;2022-07-23T15:38:59;11.15;;;5.93;;
66830;SDS011;53739;44.224;22.528;2022-07-23T15:41:27;15.40;;;5.25;;
66830;SDS011;53739;44.224;22.528;2022-07-23T15:43:53;9.60;;;5.30;;
66830;SDS011;53739;44.224;22.528;2022-07-23T15:46:19;11.63;;;5.63;;
66830;SDS011;53739;44.224;22.528;2022-07-23T15:48:54;12.35;;;5.57;;